sensor_id;sensor_type;location;lat;lon;timestamp;temperature;humidity
12971;DHT22;6550;48.650;8.774;2023-02-03T00:02:22;5.90;99.90
12971;DHT22;6550;48.650;8.774;2023-02-03T00:04:49;5.90;99.90
12971;DHT22;6550;48.650;8.774;2023-02-03T00:07:18;5.80;99.90
12971;DHT22;6550;48.650;8.774;2023-02-03T00:09:47;5.90;99.90
12971;DHT22;6550;48.650;8.774;2023-02-03T00:12:16;5.90;99.90
12971;DHT22;6550;48.650;8.774;2023-02-03T00:14:43;5.90;99.90
12971;DHT22;6550;48.650;8.774;2023-02-03T00:17:12;5.90;99.90
12971;DHT22;6550;48.650;8.774;2023-02-03T00:19:40;5.90;99.90
12971;DHT22;6550;48.650;8.774;2023-02-03T00:22:09;5.90;99.90
12971;DHT22;6550;48.650;8.774;2023-02-03T00:24:36;5.90;99.90
12971;DHT22;6550;48.650;8.774;2023-02-03T00:27:03;5.90;99.90
12971;DHT22;6550;48.650;8.774;2023-02-03T00:29:30;5.90;99.90
12971;DHT22;6550;48.650;8.774;2023-02-03T00:32:03;5.90;99.90
12971;DHT22;6550;48.650;8.774;2023-02-03T00:34:30;5.90;99.90
12971;DHT22;6550;48.650;8.774;2023-02-03T00:36:57;5.80;99.90
12971;DHT22;6550;48.650;8.774;2023-02-03T00:39:24;5.80;99.90
12971;DHT22;6550;48.650;8.774;2023-02-03T00:41:51;5.80;99.90
12971;DHT22;6550;48.650;8.774;2023-02-03T00:44:18;5.80;99.90
12971;DHT22;6550;48.650;8.774;2023-02-03T00:46:44;5.90;99.90
12971;DHT22;6550;48.650;8.774;2023-02-03T00:49:11;5.80;99.90
12971;DHT22;6550;48.650;8.774;2023-02-03T00:51:43;5.90;99.90
12971;DHT22;6550;48.650;8.774;2023-02-03T00:54:11;5.90;99.90
12971;DHT22;6550;48.650;8.774;2023-02-03T00:56:41;5.80;99.90
12971;DHT22;6550;48.650;8.774;2023-02-03T00:59:11;5.80;99.90
12971;DHT22;6550;48.650;8.774;2023-02-03T01:01:40;5.80;99.90
12971;DHT22;6550;48.650;8.774;2023-02-03T01:04:07;5.80;99.90
12971;DHT22;6550;48.650;8.774;2023-02-03T01:06:33;5.90;99.90
12971;DHT22;6550;48.650;8.774;2023-02-03T01:09:01;5.90;99.90
12971;DHT22;6550;48.650;8.774;2023-02-03T01:11:28;5.80;99.90
12971;DHT22;6550;48.650;8.774;2023-02-03T01:13:56;5.90;99.90
12971;DHT22;6550;48.650;8.774;2023-02-03T01:16:27;5.90;99.90
12971;DHT22;6550;48.650;8.774;2023-02-03T01:18:55;5.90;99.90
12971;DHT22;6550;48.650;8.774;2023-02-03T01:21:25;5.90;99.90
12971;DHT22;6550;48.650;8.774;2023-02-03T01:23:54;5.90;99.90
12971;DHT22;6550;48.650;8.774;2023-02-03T01:26:22;5.90;99.90
12971;DHT22;6550;48.650;8.774;2023-02-03T01:28:57;5.90;99.90
12971;DHT22;6550;48.650;8.774;2023-02-03T01:31:32;5.90;99.90
12971;DHT22;6550;48.650;8.774;2023-02-03T01:34:07;5.90;99.90
12971;DHT22;6550;48.650;8.774;2023-02-03T01:36:34;5.90;99.90
12971;DHT22;6550;48.650;8.774;2023-02-03T01:39:01;5.90;99.90
12971;DHT22;6550;48.650;8.774;2023-02-03T01:41:35;5.90;99.90
12971;DHT22;6550;48.650;8.774;2023-02-03T01:52:32;5.90;99.90
12971;DHT22;6550;48.650;8.774;2023-02-03T01:55:02;5.90;99.90
12971;DHT22;6550;48.650;8.774;2023-02-03T01:57:35;5.90;99.90
12971;DHT22;6550;48.650;8.774;2023-02-03T02:00:05;5.90;99.90
12971;DHT22;6550;48.650;8.774;2023-02-03T02:02:36;5.90;99.90
12971;DHT22;6550;48.650;8.774;2023-02-03T02:07:31;5.90;99.90
12971;DHT22;6550;48.650;8.774;2023-02-03T02:10:01;5.90;99.90
12971;DHT22;6550;48.650;8.774;2023-02-03T02:12:28;5.80;99.90
12971;DHT22;6550;48.650;8.774;2023-02-03T02:14:57;5.90;99.90
12971;DHT22;6550;48.650;8.774;2023-02-03T02:17:31;5.90;99.90
12971;DHT22;6550;48.650;8.774;2023-02-03T02:33:52;5.90;99.90
12971;DHT22;6550;48.650;8.774;2023-02-03T02:36:38;5.90;99.90
12971;DHT22;6550;48.650;8.774;2023-02-03T02:41:48;5.90;99.90
12971;DHT22;6550;48.650;8.774;2023-02-03T02:44:35;5.90;99.90
12971;DHT22;6550;48.650;8.774;2023-02-03T02:47:19;5.90;99.90
12971;DHT22;6550;48.650;8.774;2023-02-03T02:52:20;6.00;99.90
12971;DHT22;6550;48.650;8.774;2023-02-03T02:54:51;5.90;99.90
12971;DHT22;6550;48.650;8.774;2023-02-03T02:57:20;6.00;99.90
12971;DHT22;6550;48.650;8.774;2023-02-03T02:59:49;6.00;99.90
12971;DHT22;6550;48.650;8.774;2023-02-03T03:02:16;5.90;99.90
12971;DHT22;6550;48.650;8.774;2023-02-03T03:04:45;5.90;99.90
12971;DHT22;6550;48.650;8.774;2023-02-03T03:07:17;5.90;99.90
12971;DHT22;6550;48.650;8.774;2023-02-03T03:09:51;5.90;99.90
12971;DHT22;6550;48.650;8.774;2023-02-03T03:12:34;5.90;99.90
12971;DHT22;6550;48.650;8.774;2023-02-03T03:15:15;5.90;99.90
12971;DHT22;6550;48.650;8.774;2023-02-03T03:17:56;5.90;99.90
12971;DHT22;6550;48.650;8.774;2023-02-03T03:20:25;5.90;99.90
12971;DHT22;6550;48.650;8.774;2023-02-03T03:23:00;6.90;99.90
12971;DHT22;6550;48.650;8.774;2023-02-03T03:25:39;5.90;99.90
12971;DHT22;6550;48.650;8.774;2023-02-03T03:28:16;5.90;99.90
12971;DHT22;6550;48.650;8.774;2023-02-03T03:30:46;5.90;99.90
12971;DHT22;6550;48.650;8.774;2023-02-03T03:33:13;5.90;99.90
12971;DHT22;6550;48.650;8.774;2023-02-03T03:38:41;5.90;99.90
12971;DHT22;6550;48.650;8.774;2023-02-03T03:41:28;5.90;99.90
12971;DHT22;6550;48.650;8.774;2023-02-03T03:44:00;5.90;99.90
12971;DHT22;6550;48.650;8.774;2023-02-03T03:46:33;5.90;99.90
12971;DHT22;6550;48.650;8.774;2023-02-03T03:49:06;5.90;99.90
12971;DHT22;6550;48.650;8.774;2023-02-03T03:51:47;5.90;99.90
12971;DHT22;6550;48.650;8.774;2023-02-03T03:54:19;5.90;99.90
12971;DHT22;6550;48.650;8.774;2023-02-03T03:57:14;6.00;99.90
12971;DHT22;6550;48.650;8.774;2023-02-03T03:59:46;5.90;99.90
12971;DHT22;6550;48.650;8.774;2023-02-03T04:02:15;5.90;99.90
12971;DHT22;6550;48.650;8.774;2023-02-03T04:04:43;5.90;99.90
12971;DHT22;6550;48.650;8.774;2023-02-03T04:07:12;5.90;99.90
12971;DHT22;6550;48.650;8.774;2023-02-03T04:09:41;5.90;99.90
12971;DHT22;6550;48.650;8.774;2023-02-03T04:12:22;5.90;99.90
12971;DHT22;6550;48.650;8.774;2023-02-03T04:14:49;5.90;99.90
12971;DHT22;6550;48.650;8.774;2023-02-03T04:17:16;6.00;99.90
12971;DHT22;6550;48.650;8.774;2023-02-03T04:19:46;6.00;99.90
12971;DHT22;6550;48.650;8.774;2023-02-03T04:22:15;9.60;99.90
12971;DHT22;6550;48.650;8.774;2023-02-03T04:24:42;6.00;99.90
12971;DHT22;6550;48.650;8.774;2023-02-03T04:27:09;6.00;99.90
12971;DHT22;6550;48.650;8.774;2023-02-03T04:29:38;6.00;99.90
12971;DHT22;6550;48.650;8.774;2023-02-03T04:32:04;6.00;99.90
12971;DHT22;6550;48.650;8.774;2023-02-03T04:34:31;6.00;99.90
12971;DHT22;6550;48.650;8.774;2023-02-03T04:37:00;6.00;99.90
12971;DHT22;6550;48.650;8.774;2023-02-03T04:39:27;6.00;99.90
12971;DHT22;6550;48.650;8.774;2023-02-03T04:41:53;6.00;99.90
12971;DHT22;6550;48.650;8.774;2023-02-03T04:44:20;5.90;99.90
12971;DHT22;6550;48.650;8.774;2023-02-03T04:46:47;5.90;99.90
12971;DHT22;6550;48.650;8.774;2023-02-03T04:49:13;5.90;99.90
12971;DHT22;6550;48.650;8.774;2023-02-03T04:51:43;6.00;99.90
12971;DHT22;6550;48.650;8.774;2023-02-03T04:54:10;5.90;99.90
12971;DHT22;6550;48.650;8.774;2023-02-03T04:56:37;6.00;99.90
12971;DHT22;6550;48.650;8.774;2023-02-03T04:59:06;6.00;99.90
12971;DHT22;6550;48.650;8.774;2023-02-03T05:01:33;6.00;99.90
12971;DHT22;6550;48.650;8.774;2023-02-03T05:04:02;6.00;99.90
12971;DHT22;6550;48.650;8.774;2023-02-03T05:06:29;6.00;99.90
12971;DHT22;6550;48.650;8.774;2023-02-03T05:08:57;6.00;99.90
12971;DHT22;6550;48.650;8.774;2023-02-03T05:11:24;6.00;99.90
12971;DHT22;6550;48.650;8.774;2023-02-03T05:13:52;6.00;99.90
12971;DHT22;6550;48.650;8.774;2023-02-03T05:16:18;6.00;99.90
12971;DHT22;6550;48.650;8.774;2023-02-03T05:18:45;6.00;99.90
12971;DHT22;6550;48.650;8.774;2023-02-03T05:21:14;6.00;99.90
12971;DHT22;6550;48.650;8.774;2023-02-03T05:23:41;6.00;99.90
12971;DHT22;6550;48.650;8.774;2023-02-03T05:26:11;6.00;99.90
12971;DHT22;6550;48.650;8.774;2023-02-03T05:28:41;6.00;99.90
12971;DHT22;6550;48.650;8.774;2023-02-03T05:31:10;6.00;99.90
12971;DHT22;6550;48.650;8.774;2023-02-03T05:33:39;6.00;99.90
12971;DHT22;6550;48.650;8.774;2023-02-03T05:36:09;6.00;99.90
12971;DHT22;6550;48.650;8.774;2023-02-03T05:38:36;6.00;99.90
12971;DHT22;6550;48.650;8.774;2023-02-03T05:41:02;6.00;99.90
12971;DHT22;6550;48.650;8.774;2023-02-03T05:43:48;6.00;99.90
12971;DHT22;6550;48.650;8.774;2023-02-03T05:46:17;6.00;99.90
12971;DHT22;6550;48.650;8.774;2023-02-03T05:48:44;5.90;99.90
12971;DHT22;6550;48.650;8.774;2023-02-03T05:51:13;5.90;99.90
12971;DHT22;6550;48.650;8.774;2023-02-03T05:53:40;6.00;99.90
12971;DHT22;6550;48.650;8.774;2023-02-03T05:56:06;6.00;99.90
12971;DHT22;6550;48.650;8.774;2023-02-03T05:58:35;6.00;99.90
12971;DHT22;6550;48.650;8.774;2023-02-03T06:01:04;6.00;99.90
12971;DHT22;6550;48.650;8.774;2023-02-03T06:03:35;6.00;99.90
12971;DHT22;6550;48.650;8.774;2023-02-03T06:06:02;6.00;99.90
12971;DHT22;6550;48.650;8.774;2023-02-03T06:08:33;6.00;99.90
12971;DHT22;6550;48.650;8.774;2023-02-03T06:11:02;6.00;99.90
12971;DHT22;6550;48.650;8.774;2023-02-03T06:13:34;6.00;99.90
12971;DHT22;6550;48.650;8.774;2023-02-03T06:16:03;6.00;99.90
12971;DHT22;6550;48.650;8.774;2023-02-03T06:18:30;6.00;99.90
12971;DHT22;6550;48.650;8.774;2023-02-03T06:20:57;5.90;99.90
12971;DHT22;6550;48.650;8.774;2023-02-03T06:23:24;5.90;99.90
12971;DHT22;6550;48.650;8.774;2023-02-03T06:25:51;5.90;99.90
12971;DHT22;6550;48.650;8.774;2023-02-03T06:28:20;6.00;99.90
12971;DHT22;6550;48.650;8.774;2023-02-03T06:30:52;6.00;99.90
12971;DHT22;6550;48.650;8.774;2023-02-03T06:33:19;6.00;99.90
12971;DHT22;6550;48.650;8.774;2023-02-03T06:35:46;6.00;99.90
12971;DHT22;6550;48.650;8.774;2023-02-03T06:38:15;6.00;99.90
12971;DHT22;6550;48.650;8.774;2023-02-03T06:40:42;6.20;99.90
12971;DHT22;6550;48.650;8.774;2023-02-03T06:43:11;5.90;99.90
12971;DHT22;6550;48.650;8.774;2023-02-03T06:45:38;5.90;99.90
12971;DHT22;6550;48.650;8.774;2023-02-03T06:48:07;5.90;99.90
12971;DHT22;6550;48.650;8.774;2023-02-03T06:50:34;5.90;99.90
12971;DHT22;6550;48.650;8.774;2023-02-03T06:53:01;5.90;99.90
12971;DHT22;6550;48.650;8.774;2023-02-03T06:55:28;5.90;99.90
12971;DHT22;6550;48.650;8.774;2023-02-03T06:57:55;6.00;99.90
12971;DHT22;6550;48.650;8.774;2023-02-03T07:00:21;6.00;99.90
12971;DHT22;6550;48.650;8.774;2023-02-03T07:02:56;6.00;99.90
12971;DHT22;6550;48.650;8.774;2023-02-03T07:05:24;6.00;99.90
12971;DHT22;6550;48.650;8.774;2023-02-03T07:07:52;6.00;99.90
12971;DHT22;6550;48.650;8.774;2023-02-03T07:10:19;6.00;99.90
12971;DHT22;6550;48.650;8.774;2023-02-03T07:12:46;6.00;99.90
12971;DHT22;6550;48.650;8.774;2023-02-03T07:15:13;5.90;99.90
12971;DHT22;6550;48.650;8.774;2023-02-03T07:17:40;6.00;99.90
12971;DHT22;6550;48.650;8.774;2023-02-03T07:20:09;6.00;99.90
12971;DHT22;6550;48.650;8.774;2023-02-03T07:22:38;6.00;99.90
12971;DHT22;6550;48.650;8.774;2023-02-03T07:25:07;6.00;99.90
12971;DHT22;6550;48.650;8.774;2023-02-03T07:27:34;6.00;99.90
12971;DHT22;6550;48.650;8.774;2023-02-03T07:30:01;6.00;99.90
12971;DHT22;6550;48.650;8.774;2023-02-03T07:32:28;6.10;99.90
12971;DHT22;6550;48.650;8.774;2023-02-03T07:34:59;6.20;99.90
12971;DHT22;6550;48.650;8.774;2023-02-03T07:37:26;7.30;99.90
12971;DHT22;6550;48.650;8.774;2023-02-03T07:39:53;6.20;99.90
12971;DHT22;6550;48.650;8.774;2023-02-03T07:42:22;6.30;99.90
12971;DHT22;6550;48.650;8.774;2023-02-03T07:44:49;6.30;99.90
12971;DHT22;6550;48.650;8.774;2023-02-03T07:47:18;6.40;99.90
12971;DHT22;6550;48.650;8.774;2023-02-03T07:49:44;6.40;99.90
12971;DHT22;6550;48.650;8.774;2023-02-03T07:52:11;6.40;99.90
12971;DHT22;6550;48.650;8.774;2023-02-03T07:54:40;6.40;99.90
12971;DHT22;6550;48.650;8.774;2023-02-03T07:57:09;6.50;99.90
12971;DHT22;6550;48.650;8.774;2023-02-03T07:59:38;6.40;99.90
12971;DHT22;6550;48.650;8.774;2023-02-03T08:02:05;6.40;99.90
12971;DHT22;6550;48.650;8.774;2023-02-03T08:04:34;6.40;99.90
12971;DHT22;6550;48.650;8.774;2023-02-03T08:07:02;6.40;99.90
12971;DHT22;6550;48.650;8.774;2023-02-03T08:09:28;6.50;99.90
12971;DHT22;6550;48.650;8.774;2023-02-03T08:12:00;6.50;99.90
12971;DHT22;6550;48.650;8.774;2023-02-03T08:14:26;6.50;99.90
12971;DHT22;6550;48.650;8.774;2023-02-03T08:16:58;6.50;99.90
12971;DHT22;6550;48.650;8.774;2023-02-03T08:19:24;7.40;99.90
12971;DHT22;6550;48.650;8.774;2023-02-03T08:21:53;8.80;99.90
12971;DHT22;6550;48.650;8.774;2023-02-03T08:24:20;8.70;99.90
12971;DHT22;6550;48.650;8.774;2023-02-03T08:26:46;8.40;99.90
12971;DHT22;6550;48.650;8.774;2023-02-03T08:29:13;8.10;99.90
12971;DHT22;6550;48.650;8.774;2023-02-03T08:31:42;7.80;99.90
12971;DHT22;6550;48.650;8.774;2023-02-03T08:34:11;7.70;99.90
12971;DHT22;6550;48.650;8.774;2023-02-03T08:36:41;7.50;99.90
12971;DHT22;6550;48.650;8.774;2023-02-03T08:39:09;7.40;99.90
12971;DHT22;6550;48.650;8.774;2023-02-03T08:41:36;7.40;99.90
12971;DHT22;6550;48.650;8.774;2023-02-03T08:44:03;7.30;99.90
12971;DHT22;6550;48.650;8.774;2023-02-03T08:46:32;7.30;99.90
12971;DHT22;6550;48.650;8.774;2023-02-03T08:49:02;7.30;99.90
12971;DHT22;6550;48.650;8.774;2023-02-03T08:51:33;7.30;99.90
12971;DHT22;6550;48.650;8.774;2023-02-03T08:54:02;7.30;99.90
12971;DHT22;6550;48.650;8.774;2023-02-03T08:56:31;7.40;99.90
12971;DHT22;6550;48.650;8.774;2023-02-03T08:58:59;7.50;99.90
12971;DHT22;6550;48.650;8.774;2023-02-03T09:01:28;7.60;99.90
12971;DHT22;6550;48.650;8.774;2023-02-03T09:03:56;7.60;99.90
12971;DHT22;6550;48.650;8.774;2023-02-03T09:06:25;7.50;99.90
12971;DHT22;6550;48.650;8.774;2023-02-03T09:08:54;7.50;99.90
12971;DHT22;6550;48.650;8.774;2023-02-03T09:11:21;7.50;99.90
12971;DHT22;6550;48.650;8.774;2023-02-03T09:13:50;7.50;99.90
12971;DHT22;6550;48.650;8.774;2023-02-03T09:16:18;7.60;99.90
12971;DHT22;6550;48.650;8.774;2023-02-03T09:18:47;7.50;99.90
12971;DHT22;6550;48.650;8.774;2023-02-03T09:21:15;7.50;99.90
12971;DHT22;6550;48.650;8.774;2023-02-03T09:24:02;7.70;99.90
12971;DHT22;6550;48.650;8.774;2023-02-03T09:26:31;7.60;99.90
12971;DHT22;6550;48.650;8.774;2023-02-03T09:28:58;7.70;99.90
12971;DHT22;6550;48.650;8.774;2023-02-03T09:31:30;7.70;99.90
12971;DHT22;6550;48.650;8.774;2023-02-03T09:33:58;7.80;99.90
12971;DHT22;6550;48.650;8.774;2023-02-03T09:36:25;7.90;99.90
12971;DHT22;6550;48.650;8.774;2023-02-03T09:38:51;7.90;99.90
12971;DHT22;6550;48.650;8.774;2023-02-03T09:44:08;8.10;99.90
12971;DHT22;6550;48.650;8.774;2023-02-03T09:47:01;8.20;99.90
12971;DHT22;6550;48.650;8.774;2023-02-03T09:52:20;8.30;99.90
12971;DHT22;6550;48.650;8.774;2023-02-03T09:57:27;8.40;99.90
12971;DHT22;6550;48.650;8.774;2023-02-03T09:59:57;8.40;99.90
12971;DHT22;6550;48.650;8.774;2023-02-03T10:02:37;8.50;99.90
12971;DHT22;6550;48.650;8.774;2023-02-03T10:05:29;8.60;99.90
12971;DHT22;6550;48.650;8.774;2023-02-03T10:08:05;8.60;99.90
12971;DHT22;6550;48.650;8.774;2023-02-03T10:11:00;8.70;99.90
12971;DHT22;6550;48.650;8.774;2023-02-03T10:18:56;9.10;99.90
12971;DHT22;6550;48.650;8.774;2023-02-03T10:22:09;9.10;99.90
12971;DHT22;6550;48.650;8.774;2023-02-03T10:24:42;9.00;99.90
12971;DHT22;6550;48.650;8.774;2023-02-03T10:27:19;9.10;99.90
12971;DHT22;6550;48.650;8.774;2023-02-03T10:30:01;9.10;99.90
12971;DHT22;6550;48.650;8.774;2023-02-03T10:32:33;9.10;99.90
12971;DHT22;6550;48.650;8.774;2023-02-03T10:35:01;9.20;99.90
12971;DHT22;6550;48.650;8.774;2023-02-03T10:37:36;9.20;99.90
12971;DHT22;6550;48.650;8.774;2023-02-03T10:40:11;9.40;99.90
12971;DHT22;6550;48.650;8.774;2023-02-03T10:42:41;9.50;99.90
12971;DHT22;6550;48.650;8.774;2023-02-03T10:45:26;9.40;99.90
12971;DHT22;6550;48.650;8.774;2023-02-03T10:47:54;9.50;99.90
12971;DHT22;6550;48.650;8.774;2023-02-03T10:50:24;9.70;99.90
12971;DHT22;6550;48.650;8.774;2023-02-03T10:53:22;9.80;99.90
12971;DHT22;6550;48.650;8.774;2023-02-03T10:56:10;9.80;99.90
12971;DHT22;6550;48.650;8.774;2023-02-03T10:58:45;9.70;99.90
12971;DHT22;6550;48.650;8.774;2023-02-03T11:01:17;9.70;99.90
12971;DHT22;6550;48.650;8.774;2023-02-03T11:04:01;9.70;99.90
12971;DHT22;6550;48.650;8.774;2023-02-03T11:06:31;9.80;99.90
12971;DHT22;6550;48.650;8.774;2023-02-03T11:08:59;9.90;99.90
12971;DHT22;6550;48.650;8.774;2023-02-03T11:11:30;9.90;99.90
12971;DHT22;6550;48.650;8.774;2023-02-03T11:16:32;10.00;99.90
12971;DHT22;6550;48.650;8.774;2023-02-03T11:19:16;10.10;99.90
12971;DHT22;6550;48.650;8.774;2023-02-03T11:21:55;10.10;99.90
12971;DHT22;6550;48.650;8.774;2023-02-03T11:24:29;10.20;99.90
12971;DHT22;6550;48.650;8.774;2023-02-03T11:27:03;10.50;99.90
12971;DHT22;6550;48.650;8.774;2023-02-03T11:29:42;10.70;99.90
12971;DHT22;6550;48.650;8.774;2023-02-03T11:34:59;10.70;99.90
12971;DHT22;6550;48.650;8.774;2023-02-03T11:37:38;10.70;99.90
12971;DHT22;6550;48.650;8.774;2023-02-03T11:42:40;10.90;99.90
12971;DHT22;6550;48.650;8.774;2023-02-03T11:47:58;10.50;99.90
12971;DHT22;6550;48.650;8.774;2023-02-03T12:01:41;10.70;99.90
12971;DHT22;6550;48.650;8.774;2023-02-03T12:18:07;10.40;99.90
12971;DHT22;6550;48.650;8.774;2023-02-03T12:23:56;10.50;99.90
12971;DHT22;6550;48.650;8.774;2023-02-03T12:26:35;10.60;99.90
12971;DHT22;6550;48.650;8.774;2023-02-03T12:29:40;10.60;99.90
12971;DHT22;6550;48.650;8.774;2023-02-03T12:38:04;10.50;99.90
12971;DHT22;6550;48.650;8.774;2023-02-03T12:43:41;10.30;99.90
12971;DHT22;6550;48.650;8.774;2023-02-03T12:46:25;10.30;99.90
12971;DHT22;6550;48.650;8.774;2023-02-03T12:48:58;10.20;99.90
12971;DHT22;6550;48.650;8.774;2023-02-03T12:51:36;10.20;99.90
12971;DHT22;6550;48.650;8.774;2023-02-03T12:56:50;10.30;99.90
12971;DHT22;6550;48.650;8.774;2023-02-03T12:59:24;10.20;99.90
12971;DHT22;6550;48.650;8.774;2023-02-03T13:01:59;11.00;99.90
12971;DHT22;6550;48.650;8.774;2023-02-03T13:04:52;9.90;99.90
12971;DHT22;6550;48.650;8.774;2023-02-03T13:09:59;9.90;99.90
12971;DHT22;6550;48.650;8.774;2023-02-03T13:12:32;9.80;99.90
12971;DHT22;6550;48.650;8.774;2023-02-03T13:15:26;9.80;99.90
12971;DHT22;6550;48.650;8.774;2023-02-03T13:20:37;9.90;99.90
12971;DHT22;6550;48.650;8.774;2023-02-03T13:23:10;9.90;99.90
12971;DHT22;6550;48.650;8.774;2023-02-03T13:26:03;9.90;99.90
12971;DHT22;6550;48.650;8.774;2023-02-03T13:33:50;9.80;99.90
12971;DHT22;6550;48.650;8.774;2023-02-03T13:47:32;9.80;99.90
12971;DHT22;6550;48.650;8.774;2023-02-03T13:50:02;9.90;99.90
12971;DHT22;6550;48.650;8.774;2023-02-03T13:52:40;9.90;99.90
12971;DHT22;6550;48.650;8.774;2023-02-03T13:55:28;9.80;99.90
12971;DHT22;6550;48.650;8.774;2023-02-03T13:57:56;9.80;99.90
12971;DHT22;6550;48.650;8.774;2023-02-03T14:05:53;9.80;99.90
12971;DHT22;6550;48.650;8.774;2023-02-03T14:16:46;9.60;99.90
12971;DHT22;6550;48.650;8.774;2023-02-03T14:22:02;9.60;99.90
12971;DHT22;6550;48.650;8.774;2023-02-03T14:24:38;9.50;99.90
12971;DHT22;6550;48.650;8.774;2023-02-03T14:27:26;9.50;99.90
12971;DHT22;6550;48.650;8.774;2023-02-03T14:30:12;9.50;99.90
12971;DHT22;6550;48.650;8.774;2023-02-03T14:32:49;9.40;99.90
12971;DHT22;6550;48.650;8.774;2023-02-03T14:35:22;9.40;99.90
12971;DHT22;6550;48.650;8.774;2023-02-03T14:37:52;9.40;99.90
12971;DHT22;6550;48.650;8.774;2023-02-03T14:40:53;9.30;99.90
12971;DHT22;6550;48.650;8.774;2023-02-03T14:43:32;9.20;99.90
12971;DHT22;6550;48.650;8.774;2023-02-03T14:54:23;9.10;99.90
12971;DHT22;6550;48.650;8.774;2023-02-03T14:59:58;9.00;99.90
12971;DHT22;6550;48.650;8.774;2023-02-03T15:02:28;9.00;99.90
12971;DHT22;6550;48.650;8.774;2023-02-03T15:12:56;8.80;99.90
12971;DHT22;6550;48.650;8.774;2023-02-03T15:15:24;8.80;99.90
12971;DHT22;6550;48.650;8.774;2023-02-03T15:18:18;8.70;99.90
12971;DHT22;6550;48.650;8.774;2023-02-03T15:20:46;8.70;99.90
12971;DHT22;6550;48.650;8.774;2023-02-03T15:23:21;8.80;99.90
12971;DHT22;6550;48.650;8.774;2023-02-03T15:26:02;8.70;99.90
12971;DHT22;6550;48.650;8.774;2023-02-03T15:28:29;8.60;99.90
12971;DHT22;6550;48.650;8.774;2023-02-03T15:31:22;8.60;99.90
12971;DHT22;6550;48.650;8.774;2023-02-03T15:33:52;8.50;99.90
12971;DHT22;6550;48.650;8.774;2023-02-03T15:36:26;8.50;99.90
12971;DHT22;6550;48.650;8.774;2023-02-03T15:39:06;8.50;99.90
12971;DHT22;6550;48.650;8.774;2023-02-03T15:41:35;8.40;99.90
12971;DHT22;6550;48.650;8.774;2023-02-03T15:44:07;8.40;99.90
12971;DHT22;6550;48.650;8.774;2023-02-03T15:46:41;8.40;99.90
12971;DHT22;6550;48.650;8.774;2023-02-03T15:51:53;8.40;99.90
12971;DHT22;6550;48.650;8.774;2023-02-03T15:54:31;8.30;99.90
12971;DHT22;6550;48.650;8.774;2023-02-03T15:57:15;8.30;99.90
12971;DHT22;6550;48.650;8.774;2023-02-03T15:59:57;8.30;99.90
12971;DHT22;6550;48.650;8.774;2023-02-03T16:02:33;8.30;99.90
12971;DHT22;6550;48.650;8.774;2023-02-03T16:05:32;8.20;99.90
12971;DHT22;6550;48.650;8.774;2023-02-03T16:08:33;8.20;99.90
12971;DHT22;6550;48.650;8.774;2023-02-03T16:11:04;8.20;99.90
12971;DHT22;6550;48.650;8.774;2023-02-03T16:13:48;8.20;99.90
12971;DHT22;6550;48.650;8.774;2023-02-03T16:18:53;8.10;99.90
12971;DHT22;6550;48.650;8.774;2023-02-03T16:21:29;8.00;99.90
12971;DHT22;6550;48.650;8.774;2023-02-03T16:23:57;8.00;99.90
12971;DHT22;6550;48.650;8.774;2023-02-03T16:26:29;8.00;99.90
12971;DHT22;6550;48.650;8.774;2023-02-03T16:31:45;7.90;99.90
12971;DHT22;6550;48.650;8.774;2023-02-03T16:34:32;7.90;99.90
12971;DHT22;6550;48.650;8.774;2023-02-03T16:40:12;7.80;99.90
12971;DHT22;6550;48.650;8.774;2023-02-03T16:42:58;7.80;99.90
12971;DHT22;6550;48.650;8.774;2023-02-03T16:45:43;7.80;99.90
12971;DHT22;6550;48.650;8.774;2023-02-03T16:48:29;7.80;99.90
12971;DHT22;6550;48.650;8.774;2023-02-03T16:51:15;7.70;99.90
12971;DHT22;6550;48.650;8.774;2023-02-03T16:53:44;7.70;99.90
12971;DHT22;6550;48.650;8.774;2023-02-03T16:56:13;7.70;99.90
12971;DHT22;6550;48.650;8.774;2023-02-03T16:58:40;7.70;99.90
12971;DHT22;6550;48.650;8.774;2023-02-03T17:01:07;7.70;99.90
12971;DHT22;6550;48.650;8.774;2023-02-03T17:03:37;7.60;99.90
12971;DHT22;6550;48.650;8.774;2023-02-03T17:06:09;7.60;99.90
12971;DHT22;6550;48.650;8.774;2023-02-03T17:08:38;7.70;99.90
12971;DHT22;6550;48.650;8.774;2023-02-03T17:11:17;7.60;99.90
12971;DHT22;6550;48.650;8.774;2023-02-03T17:13:45;7.60;99.90
12971;DHT22;6550;48.650;8.774;2023-02-03T17:16:15;7.60;99.90
12971;DHT22;6550;48.650;8.774;2023-02-03T17:18:42;7.60;99.90
12971;DHT22;6550;48.650;8.774;2023-02-03T17:21:15;7.60;99.90
12971;DHT22;6550;48.650;8.774;2023-02-03T17:23:42;7.60;99.90
12971;DHT22;6550;48.650;8.774;2023-02-03T17:26:09;7.60;99.90
12971;DHT22;6550;48.650;8.774;2023-02-03T17:28:40;7.60;99.90
12971;DHT22;6550;48.650;8.774;2023-02-03T17:31:14;7.60;99.90
12971;DHT22;6550;48.650;8.774;2023-02-03T17:33:41;7.60;99.90
12971;DHT22;6550;48.650;8.774;2023-02-03T17:36:10;7.50;99.90
12971;DHT22;6550;48.650;8.774;2023-02-03T17:38:39;7.60;99.90
12971;DHT22;6550;48.650;8.774;2023-02-03T17:41:24;7.80;99.90
12971;DHT22;6550;48.650;8.774;2023-02-03T17:44:11;7.60;99.90
12971;DHT22;6550;48.650;8.774;2023-02-03T17:46:57;7.50;99.90
12971;DHT22;6550;48.650;8.774;2023-02-03T17:49:44;7.60;99.90
12971;DHT22;6550;48.650;8.774;2023-02-03T17:52:30;7.60;99.90
12971;DHT22;6550;48.650;8.774;2023-02-03T17:55:14;7.60;99.90
12971;DHT22;6550;48.650;8.774;2023-02-03T17:57:41;7.50;99.90
12971;DHT22;6550;48.650;8.774;2023-02-03T18:00:11;7.50;99.90
12971;DHT22;6550;48.650;8.774;2023-02-03T18:02:38;7.50;99.90
12971;DHT22;6550;48.650;8.774;2023-02-03T18:05:08;7.50;99.90
12971;DHT22;6550;48.650;8.774;2023-02-03T18:07:38;7.40;99.90
12971;DHT22;6550;48.650;8.774;2023-02-03T18:10:05;7.50;99.90
12971;DHT22;6550;48.650;8.774;2023-02-03T18:12:31;7.50;99.90
12971;DHT22;6550;48.650;8.774;2023-02-03T18:14:58;7.40;99.90
12971;DHT22;6550;48.650;8.774;2023-02-03T18:17:25;7.40;99.90
12971;DHT22;6550;48.650;8.774;2023-02-03T18:19:54;7.50;99.90
12971;DHT22;6550;48.650;8.774;2023-02-03T18:22:22;7.50;99.90
12971;DHT22;6550;48.650;8.774;2023-02-03T18:24:48;7.50;99.90
12971;DHT22;6550;48.650;8.774;2023-02-03T18:27:19;7.40;99.90
12971;DHT22;6550;48.650;8.774;2023-02-03T18:29:46;7.40;99.90
12971;DHT22;6550;48.650;8.774;2023-02-03T18:32:14;7.40;99.90
12971;DHT22;6550;48.650;8.774;2023-02-03T18:34:41;7.40;99.90
12971;DHT22;6550;48.650;8.774;2023-02-03T18:37:08;7.40;99.90
12971;DHT22;6550;48.650;8.774;2023-02-03T18:39:35;7.40;99.90
12971;DHT22;6550;48.650;8.774;2023-02-03T18:42:02;7.40;99.90
12971;DHT22;6550;48.650;8.774;2023-02-03T18:44:29;7.40;99.90
12971;DHT22;6550;48.650;8.774;2023-02-03T18:46:59;7.40;99.90
12971;DHT22;6550;48.650;8.774;2023-02-03T18:49:35;7.40;99.90
12971;DHT22;6550;48.650;8.774;2023-02-03T18:52:05;7.50;99.90
12971;DHT22;6550;48.650;8.774;2023-02-03T18:54:34;7.50;99.90
12971;DHT22;6550;48.650;8.774;2023-02-03T18:57:03;7.50;99.90
12971;DHT22;6550;48.650;8.774;2023-02-03T18:59:35;7.50;99.90
12971;DHT22;6550;48.650;8.774;2023-02-03T19:02:01;7.40;99.90
12971;DHT22;6550;48.650;8.774;2023-02-03T19:04:30;7.40;99.90
12971;DHT22;6550;48.650;8.774;2023-02-03T19:06:57;7.40;99.90
12971;DHT22;6550;48.650;8.774;2023-02-03T19:09:26;7.40;99.90
12971;DHT22;6550;48.650;8.774;2023-02-03T19:11:53;7.40;99.90
12971;DHT22;6550;48.650;8.774;2023-02-03T19:14:23;7.40;99.90
12971;DHT22;6550;48.650;8.774;2023-02-03T19:16:50;7.40;99.90